Rugeley, United Kingdom
Current Conditions -  °F | °C
As of 12:20 AM on Thursday 29 Jan 2015 (Local Time) from EGBB Reporting Station
Clear Clear  
Wind Chill: -2°   Ceiling: Unl
Heat Index:   Visibility: 6mi
Dew Point:   Wind: 10mph
Humidity: 87%   Direction: 230°SW
Pressure: 29.38"   Gusts: NA
Location:  52.76°N, 1.93°W
Report Text: EGBB 290020Z AUTO 23009KT 200V270 9999 NCD 02/M00 Q0995
Loading
Personal Weather Stations






























Interactive Weather Map New forecast layout! Learn more

10-Day Weather Forecast

Advertisements
Track Severe Weather on mobile